Latest Weather Observations for Maroochydore

IDQ60901

Issued at 6:05 am EST Tuesday 23 September 2014 (issued every 10 minutes, with the page automatically refreshed every 10 minutes)

About weather observations | Map of Brisbane area stations | Latest observations for Brisbane area | Other Formats
Station Details ID: 040861 Name: SUNSHINE COAST AIRPORT Lat: -26.60 Lon: 153.09 Height: 3.3 m
Data from the previous 72 hours. | See also: Recent months at Maroochydore
Date/Time
EST
Tmp

°C
App
Tmp
°C
Dew
Point
°C
Rel
Hum
%
Delta-T

°C
Wind Press
QNH
hPa
Press
MSL
hPa
Rain
since
9 am
mm
Dir
 
Spd
km/h
Gust
km/h
Spd
kts
Gust
kts
23/06:00am 19.5 14.4 13.0 66 3.7 ESE 32 43 17 23 1026.0 1026.0 3.0
23/05:30am 19.2 14.6 13.4 69 3.3 ESE 30 41 16 22 1025.6 - 3.0
23/05:00am 19.2 14.2 13.4 69 3.3 ESE 32 41 17 22 1025.4 - 3.0
23/04:30am 19.1 14.0 13.1 68 3.4 ESE 32 41 17 22 1025.3 - 3.0
23/04:00am 18.8 15.2 14.1 74 2.7 ESE 26 35 14 19 1025.1 - 3.0
23/03:30am 17.8 14.7 14.5 81 1.9 SSE 24 30 13 16 1025.0 - 2.2
23/03:00am 18.1 15.4 14.6 80 2.0 ESE 22 32 12 17 1025.1 1025.1 2.2
23/02:30am 17.5 13.9 14.2 81 1.9 ESE 26 35 14 19 1025.3 - 2.2
23/02:14am 17.0 15.1 15.2 89 1.0 ESE 19 26 10 14 1025.4 - 2.0
23/02:00am 16.4 13.4 14.8 90 0.9 ESE 24 32 13 17 1025.7 - 2.0
23/01:34am 17.6 14.4 15.4 87 1.3 E 26 43 14 23 1025.9 - 0.2
23/01:30am 17.7 14.4 15.1 85 1.5 E 26 37 14 20 1026.0 - 0.0
23/01:00am 19.2 16.1 13.4 69 3.3 E 22 30 12 16 1026.1 - 0.0
23/12:30am 18.9 15.9 13.7 72 3.0 ESE 22 33 12 18 1026.4 - 0.0
23/12:00am 17.3 12.3 13.4 78 2.2 E 32 44 17 24 1026.9 1026.9 0.0
 
Date/Time
EST
Tmp

°C
App
Tmp
°C
Dew
Point
°C
Rel
Hum
%
Delta-T

°C
Wind Press
QNH
hPa
Press
MSL
hPa
Rain
since
9 am
mm
Dir
 
Spd
km/h
Gust
km/h
Spd
kts
Gust
kts
22/11:30pm 19.4 15.4 14.2 72 3.0 E 28 46 15 25 1026.6 - 0.0
22/11:00pm 19.6 16.1 14.4 72 3.0 E 26 33 14 18 1026.7 - 0.0
22/10:30pm 19.6 15.3 13.3 67 3.6 ESE 28 39 15 21 1026.8 - 0.0
22/10:00pm 19.5 16.3 14.3 72 3.0 ESE 24 37 13 20 1027.0 - 0.0
22/09:30pm 19.8 15.8 13.0 65 3.8 ESE 26 33 14 18 1027.1 - 0.0
22/09:00pm 19.6 16.2 12.4 63 4.0 ESE 22 30 12 16 1027.2 1027.2 0.0
22/08:30pm 19.7 15.5 12.5 63 4.0 ESE 26 33 14 18 1027.3 - 0.0
22/08:00pm 19.5 15.9 13.2 67 3.6 ESE 24 35 13 19 1027.2 - 0.0
22/07:30pm 19.8 15.2 12.3 62 4.2 ESE 28 35 15 19 1026.9 - 0.0
22/07:00pm 19.7 15.2 12.5 63 4.0 ESE 28 39 15 21 1026.6 - 0.0
22/06:30pm 19.7 14.2 12.5 63 4.0 ESE 33 43 18 23 1025.9 - 0.0
22/06:00pm 19.8 14.8 12.3 62 4.2 ESE 30 39 16 21 1025.9 1025.9 0.0
22/05:30pm 19.9 14.4 11.7 59 4.5 ESE 32 43 17 23 1025.7 - 0.0
22/05:00pm 20.1 15.0 13.1 64 4.0 ESE 32 41 17 22 1025.6 - 0.0
22/04:30pm 20.1 14.8 12.6 62 4.2 ESE 32 39 17 21 1025.2 - 0.0
22/04:00pm 20.9 16.0 12.6 59 4.7 ESE 30 41 16 22 1025.1 - 0.0
22/03:30pm 21.6 16.0 11.6 53 5.6 ESE 32 43 17 23 1025.1 - 0.0
22/03:00pm 20.9 15.9 12.3 58 4.8 ESE 30 46 16 25 1025.0 1025.0 0.0
22/02:30pm 21.7 16.6 12.0 54 5.4 ESE 30 39 16 21 1025.1 - 0.0
22/02:00pm 21.9 17.6 13.3 58 4.9 SE 28 39 15 21 1025.1 - 0.0
22/01:30pm 21.1 16.7 13.0 60 4.6 ESE 28 37 15 20 1025.4 - 0.0
22/01:00pm 21.1 16.5 12.3 57 5.0 ESE 28 35 15 19 1025.7 - 0.0
22/12:30pm 21.7 16.8 11.4 52 5.7 ESE 28 37 15 20 1026.0 - 0.0
22/12:00pm 21.8 17.0 11.8 53 5.6 ESE 28 39 15 21 1026.2 1026.2 0.0
22/11:30am 22.5 17.5 12.2 52 5.8 ESE 30 41 16 22 1026.6 - 0.0
22/11:00am 21.4 16.9 12.5 57 5.0 ESE 28 39 15 21 1026.8 - 0.0
22/10:30am 22.1 17.1 10.9 49 6.2 ESE 28 39 15 21 1027.2 - 0.0
22/10:00am 22.1 17.3 11.5 51 5.9 ESE 28 35 15 19 1027.3 - 0.0
22/09:30am 21.2 16.3 11.2 53 5.5 ESE 28 39 15 21 1027.0 - 0.0
22/09:00am 21.7 16.4 11.4 52 5.7 ESE 30 41 16 22 1026.7 1026.7 0.0
22/08:30am 21.5 16.7 11.5 53 5.6 ESE 28 41 15 22 1026.5 - 0.0
22/08:00am 21.2 15.6 11.5 54 5.4 ESE 32 43 17 23 1026.3 - 0.0
22/07:30am 20.6 15.8 11.5 56 5.0 ESE 28 39 15 21 1026.1 - 0.0
22/07:00am 19.8 14.8 12.1 61 4.3 ESE 30 44 16 24 1025.7 - 0.0
22/06:30am 19.4 13.8 11.4 60 4.4 ESE 32 43 17 23 1025.1 - 0.0
22/06:00am 19.1 14.7 12.8 67 3.5 ESE 28 41 15 22 1025.0 1025.0 0.0
22/05:30am 18.3 13.7 13.4 73 2.8 ESE 30 44 16 24 1025.1 - 0.0
22/05:00am 18.7 14.0 13.1 70 3.2 ESE 30 46 16 25 1024.9 - 0.0
22/04:56am 18.8 14.6 13.6 72 3.0 ESE 28 46 15 25 1024.8 - 0.0
22/04:47am 18.8 14.4 13.0 69 3.3 ESE 28 37 15 20 1024.7 - 0.0
22/04:30am 15.8 14.3 13.1 84 1.5 S 13 15 7 8 1024.8 - 0.0
22/04:00am 15.8 13.6 13.3 85 1.4 SSW 17 20 9 11 1024.5 - 0.0
22/03:30am 15.5 13.3 13.2 86 1.3 S 17 24 9 13 1024.6 - 0.0
22/03:00am 15.6 12.8 13.3 86 1.3 S 20 26 11 14 1024.6 1024.6 0.0
22/02:30am 16.9 14.0 12.8 77 2.3 S 20 30 11 16 1024.7 - 0.0
22/02:00am 19.2 14.0 11.5 61 4.2 ESE 30 41 16 22 1025.0 - 0.0
22/01:30am 19.2 15.5 12.7 66 3.6 ESE 24 35 13 19 1025.4 - 0.0
22/01:00am 18.3 14.8 13.4 73 2.8 SSE 24 35 13 19 1025.7 - 0.0
22/12:30am 18.5 14.6 12.0 66 3.6 SE 24 32 13 17 1025.9 - 0.0
22/12:00am 18.3 14.3 14.2 77 2.3 SE 28 39 15 21 1026.2 1026.2 0.0
 
Date/Time
EST
Tmp

°C
App
Tmp
°C
Dew
Point
°C
Rel
Hum
%
Delta-T

°C
Wind Press
QNH
hPa
Press
MSL
hPa
Rain
since
9 am
mm
Dir
 
Spd
km/h
Gust
km/h
Spd
kts
Gust
kts
21/11:30pm 16.9 14.3 13.8 82 1.8 S 20 26 11 14 1026.3 - 0.0
21/11:00pm 19.3 15.2 12.8 66 3.7 SE 26 35 14 19 1026.1 - 0.0
21/10:30pm 19.4 15.2 11.2 59 4.5 ESE 24 33 13 18 1026.4 - 0.0
21/10:00pm 19.3 15.3 11.8 62 4.1 SE 24 35 13 19 1026.3 - 0.0
21/09:30pm 19.5 14.9 12.3 63 4.0 ESE 28 37 15 20 1026.2 - 0.0
21/09:00pm 19.4 14.5 11.4 60 4.4 ESE 28 41 15 22 1026.0 1026.0 0.0
21/08:30pm 19.3 14.1 11.6 61 4.2 ESE 30 37 16 20 1026.1 - 0.0
21/08:00pm 19.4 14.6 11.7 61 4.2 ESE 28 37 15 20 1026.1 - 0.0
21/07:30pm 19.4 14.7 11.9 62 4.2 ESE 28 41 15 22 1025.9 - 0.0
21/07:00pm 19.5 15.1 13.0 66 3.7 ESE 28 35 15 19 1025.5 - 0.0
21/06:30pm 19.5 14.6 12.5 64 3.9 ESE 30 37 16 20 1025.1 - 0.0
21/06:13pm 19.6 15.1 12.6 64 3.9 ESE 28 39 15 21 1025.0 - 0.0
21/06:00pm 18.1 17.2 13.6 75 2.5 NNE 11 17 6 9 1025.0 1025.0 0.0
21/05:30pm 18.1 17.6 13.8 76 2.4 ESE 9 13 5 7 1024.8 - 0.0
21/05:00pm 18.4 16.6 13.3 72 2.9 SE 15 19 8 10 1024.5 - 0.0
21/04:30pm 18.7 16.4 12.9 69 3.3 E 17 26 9 14 1024.1 - 0.0
21/04:00pm 18.8 14.9 13.4 71 3.1 SE 26 33 14 18 1024.1 - 0.0
21/03:30pm 20.7 17.3 13.6 64 4.1 SE 24 32 13 17 1024.0 - 0.0
21/03:00pm 19.8 16.1 12.8 64 3.9 SSE 24 30 13 16 1023.8 1023.8 0.0
21/02:30pm 20.8 18.2 14.9 69 3.5 SSE 22 32 12 17 1023.8 - 0.0
21/02:00pm 21.3 16.9 14.0 63 4.2 SSE 30 44 16 24 1023.8 - 0.0
21/01:30pm 22.2 18.2 13.0 56 5.3 SE 26 32 14 17 1023.9 - 0.0
21/01:00pm 21.3 16.8 13.7 62 4.4 SE 30 35 16 19 1024.1 - 0.0
21/12:30pm 21.7 17.9 14.6 64 4.2 SSE 28 35 15 19 1024.6 - 0.0
21/12:00pm 22.1 19.1 14.7 63 4.3 SSE 24 32 13 17 1024.9 1024.9 0.0
21/11:30am 22.1 19.0 14.5 62 4.5 SSE 24 33 13 18 1025.0 - 0.0
21/11:00am 22.0 19.2 14.4 62 4.5 SSE 22 30 12 16 1025.4 - 0.0
21/10:30am 21.2 18.3 13.9 63 4.2 SSE 22 32 12 17 1025.8 - 0.0
21/10:00am 20.6 17.2 12.6 60 4.5 S 22 32 12 17 1025.8 - 0.0
21/09:30am 20.0 17.4 13.7 67 3.6 S 20 28 11 15 1026.0 - 0.0
21/09:00am 19.4 17.4 14.0 71 3.1 S 17 26 9 14 1026.2 1026.2 29.8
21/08:30am 17.8 14.9 12.9 73 2.7 S 20 28 11 15 1025.9 - 29.8
21/08:00am 17.2 14.4 12.5 74 2.6 S 19 22 10 12 1025.6 - 29.8
21/07:30am 17.3 14.9 12.8 75 2.5 S 17 22 9 12 1025.5 - 29.8
21/07:00am 16.2 14.0 12.2 77 2.2 SSW 15 19 8 10 1025.2 - 29.8
21/06:30am 16.2 14.7 10.5 69 3.0 WSW 9 20 5 11 1024.8 - 29.8
21/06:00am 18.3 14.1 9.9 58 4.4 SE 22 32 12 17 1024.4 1024.4 29.8
21/05:30am 18.6 14.0 9.7 56 4.7 SE 24 35 13 19 1023.8 - 29.8
21/05:00am 18.8 14.0 10.4 58 4.5 ESE 26 35 14 19 1023.7 - 29.8
21/04:30am 18.7 14.3 10.5 59 4.4 SE 24 32 13 17 1023.7 - 29.8
21/04:00am 18.7 14.5 11.0 61 4.2 SE 24 35 13 19 1023.3 - 29.8
21/03:30am 18.9 14.7 11.2 61 4.2 SE 24 32 13 17 1023.0 - 29.8
21/03:00am 18.6 14.3 10.9 61 4.1 SE 24 32 13 17 1023.2 1023.2 29.8
21/02:30am 18.7 14.9 11.3 62 4.0 SE 22 30 12 16 1023.3 - 29.8
21/02:00am 18.9 15.1 12.4 66 3.6 SE 24 32 13 17 1023.4 - 29.8
21/01:30am 18.9 15.6 12.9 68 3.4 SE 22 32 12 17 1023.6 - 29.8
21/01:00am 19.0 15.3 12.7 67 3.5 SE 24 32 13 17 1023.7 - 29.8
21/12:30am 18.5 15.2 12.9 70 3.1 SE 22 35 12 19 1023.8 - 29.8
21/12:00am 18.7 15.4 12.7 68 3.3 ESE 22 30 12 16 1023.8 1023.8 29.8
 
Date/Time
EST
Tmp

°C
App
Tmp
°C
Dew
Point
°C
Rel
Hum
%
Delta-T

°C
Wind Press
QNH
hPa
Press
MSL
hPa
Rain
since
9 am
mm
Dir
 
Spd
km/h
Gust
km/h
Spd
kts
Gust
kts
20/11:30pm 18.8 15.5 12.8 68 3.4 SE 22 32 12 17 1023.9 - 29.8
20/11:00pm 18.8 16.2 13.9 73 2.8 ESE 20 28 11 15 1024.0 - 29.8
20/10:30pm 18.4 16.0 14.3 77 2.4 SE 20 30 11 16 1023.7 - 29.8
20/10:00pm 18.5 15.6 14.0 75 2.6 SE 22 30 12 16 1023.6 - 29.8
20/09:30pm 18.0 16.9 15.3 84 1.6 E 15 22 8 12 1023.7 - 29.8
20/09:00pm 17.4 16.3 15.2 87 1.3 SE 15 20 8 11 1023.7 1023.7 29.8
20/08:33pm 16.3 16.5 14.8 91 0.9 SSW 7 11 4 6 1023.7 - 29.8
20/08:30pm 16.3 16.5 14.8 91 0.9 SSW 7 11 4 6 1023.7 - 29.8
20/08:11pm 16.5 14.4 14.7 89 1.0 SSE 19 32 10 17 1023.4 - 28.0
20/08:00pm 17.4 15.2 14.9 85 1.4 ESE 20 30 11 16 1023.2 - 26.6
20/07:30pm 17.6 17.7 15.4 87 1.3 SE 9 15 5 8 1022.8 - 26.0
20/07:00pm 17.5 14.5 14.8 84 1.6 SE 24 32 13 17 1022.0 - 25.2
20/06:53pm 17.3 14.2 14.6 84 1.6 SE 24 33 13 18 1021.9 - 25.2
20/06:30pm 17.2 13.4 14.7 85 1.4 ESE 28 39 15 21 1021.3 - 23.4
20/06:29pm 17.2 13.3 14.5 84 1.6 ESE 28 39 15 21 1021.3 - 23.0
20/06:00pm 18.6 15.5 14.5 77 2.4 ESE 24 28 13 15 1020.9 1020.9 21.2
20/05:41pm 18.6 16.9 15.8 84 1.7 E 19 26 10 14 1020.5 - 21.2
20/05:30pm 18.4 16.0 15.3 82 1.8 E 22 30 12 16 1020.0 - 21.2
20/05:00pm 18.2 15.5 15.6 85 1.5 E 24 32 13 17 1019.8 - 21.2
20/04:30pm 17.1 15.2 15.8 92 0.8 ESE 20 30 11 16 1019.6 - 21.2
20/04:16pm 17.0 14.0 15.9 93 0.6 SE 26 39 14 21 1019.3 - 21.2
20/04:12pm 16.8 14.2 15.8 94 0.6 SE 24 32 13 17 1019.2 - 21.2
20/04:02pm 16.4 14.1 15.6 95 0.5 SE 22 33 12 18 1019.2 - 21.0
20/04:00pm 16.3 13.9 15.5 95 0.5 SE 22 33 12 18 1019.2 - 21.0
20/03:48pm 15.1 9.9 13.5 90 0.9 ESE 33 52 18 28 1019.3 - 11.2
20/03:47pm 14.9 8.4 12.9 88 1.1 ESE 39 52 21 28 1019.1 - 9.2
20/03:43pm 15.4 6.9 12.0 80 1.8 S 48 67 26 36 1018.9 - 2.4
20/03:42pm 16.8 8.9 12.7 77 2.3 S 46 67 25 36 1018.9 - 1.2
20/03:30pm 21.0 19.6 16.6 76 2.7 ESE 19 28 10 15 1018.7 - 1.0
20/03:00pm 20.4 18.1 15.6 74 2.8 ESE 22 30 12 16 1018.5 1018.5 0.8
20/02:30pm 21.8 19.6 15.9 69 3.5 ESE 22 32 12 17 1018.5 - 0.8
20/02:00pm 21.8 19.8 15.4 67 3.8 ESE 20 28 11 15 1018.6 - 0.8
20/01:30pm 22.1 20.0 15.2 65 4.1 ESE 20 26 11 14 1018.8 - 0.8
20/01:00pm 20.9 20.6 17.3 80 2.2 E 15 22 8 12 1019.1 - 0.8
20/12:30pm 18.6 17.6 15.5 82 1.8 SE 15 19 8 10 1019.7 - 0.8
20/12:00pm 19.8 17.0 14.4 71 3.1 SSE 22 30 12 16 1019.8 1019.8 0.0
20/11:30am 22.5 18.8 13.8 58 5.1 SE 26 30 14 16 1020.1 - 0.0
20/11:00am 21.6 18.2 14.7 65 4.1 SE 26 33 14 18 1020.4 - 0.0
20/10:30am 21.6 19.4 14.3 63 4.3 ESE 19 24 10 13 1020.7 - 0.0
20/10:00am 20.7 18.6 14.6 68 3.6 SE 19 24 10 13 1020.9 - 0.0
20/09:30am 22.5 20.4 14.6 61 4.7 ESE 19 20 10 11 1021.1 - 0.0
20/09:00am 22.4 22.0 14.0 59 4.9 W 9 13 5 7 1021.3 1021.3 0.0
20/08:30am 21.1 21.2 14.5 66 3.9 W 7 11 4 6 1021.2 - 0.0
20/08:00am 17.6 17.4 14.7 83 1.7 W 9 11 5 6 1020.9 - 0.0
20/07:30am 16.6 15.8 14.1 85 1.4 W 11 13 6 7 1020.6 - 0.0
20/07:00am 14.5 13.9 13.4 93 0.6 W 9 13 5 7 1020.1 - 0.0
20/06:30am 12.9 11.5 12.1 95 0.4 W 11 13 6 7 1019.7 - 0.0

Latest Capital City Observations: Canberra | Sydney | Melbourne | Brisbane | Adelaide | Perth | Hobart | Darwin

Other Formats:

Comma delimited format used in spreadsheet applications
http://www.bom.gov.au/fwo/IDQ60901/IDQ60901.94569.axf

JavaScript Object Notation format (JSON) in row-major order
http://www.bom.gov.au/fwo/IDQ60901/IDQ60901.94569.json